Aeroporto :
LOGIN :

Iscrizione | Disclaimer

   EN    FR    IT 

 










Sommario :    VFR   VFR Marginale   IFR   IFR Intensivo   IFR Molto Intensivo
Visibilità : 
Base nubi : 
>= 8 km
>= 3000ft
5 / 8 km
1000 / 3000 ft
1500m / 5 km
500 / 1000 ft
800 / 1500m
200 / 500 ft
< 800m
< 200 ft
Simboli :   Temporali  Nebbia  Neve Forte  Precipitazioni Forti  Vento > 20 kt
SIGMETs :   Varie  Temporali  Ghiacco  Turbolenza  Onda orograficha  Ceneri Vulcaniche






- Altitudine del aeroporto : 215 ft
- Codice IATA : ABZ


EGPD - Aberdeen / Dyce

ULTIMO METAR :
  • 100350Z AUTO 18010KT 9999 OVC004 07/06 Q1025 NOSIG

METARs OBSOLETI :
  • 100320Z AUTO 18009KT 8000 OVC004 07/06 Q1025 NOSIG
  • 100250Z AUTO 18009KT 7000 OVC004 07/06 Q1026 NOSIG
  • 100220Z AUTO 18009KT 8000 OVC004 07/06 Q1026 NOSIG
  • 100150Z AUTO 17010KT 8000 OVC004 07/06 Q1026 NOSIG
  • 100120Z AUTO 18010KT 7000 OVC005 07/05 Q1027 TEMPO BKN004
  • 100050Z AUTO 18012KT 9000 OVC006 07/05 Q1027 TEMPO BKN007

TAF TAF EGPD
Valido dal 10 a 00 ore il 11 a 00 ore UTC


092255Z 1000/1024 17009KT 9999 BKN012
TEMPO 1000/1010 6000 BKN006
PROB40
TEMPO 1000/1008 3000 BR BKN003
BECMG 1010/1013 FEW008
PROB30
TEMPO 1015/1024 5000 SHRA



MetMap, La meteo Aeronautica in un colpo d'occhio ! - Copyright ORBIFLY Dicembre 2007 - Disclaimer

ORBIFLY MET'MAP TEAM :

Programmazione e sviluppo : Alexandra Zaïnal
Concezione : Baudouin d'Aumeries
Aiuto per la programmazione : Marc-Olivier Méhu
Supporto tecnico e logistico : Manuel Goepfert
Aiuto per la traduzione : Arnaldo La Scala

Contatto : metmap@orbifly.com




FONTI E CREDITI :

   NOAA